createdAt,value
2023-02-06T00:02:01.606Z,100.00
2023-02-06T00:04:31.361Z,100.00
2023-02-06T00:07:01.189Z,100.00
2023-02-06T00:09:33.661Z,100.00
2023-02-06T00:12:03.494Z,100.00
2023-02-06T00:14:33.230Z,100.00
2023-02-06T00:17:03.058Z,100.00
2023-02-06T00:19:32.802Z,100.00
2023-02-06T00:22:02.577Z,100.00
2023-02-06T00:24:35.028Z,100.00
2023-02-06T00:27:05.490Z,100.00
2023-02-06T00:29:35.272Z,100.00
2023-02-06T00:32:05.034Z,100.00
2023-02-06T00:34:34.844Z,100.00
2023-02-06T00:37:04.716Z,100.00
2023-02-06T00:39:37.254Z,100.00
2023-02-06T00:42:07.277Z,100.00
2023-02-06T00:44:37.044Z,100.00
2023-02-06T00:47:06.819Z,100.00
2023-02-06T00:49:36.580Z,100.00
2023-02-06T00:52:06.517Z,100.00
2023-02-06T00:54:38.918Z,100.00
2023-02-06T00:57:08.686Z,100.00
2023-02-06T00:59:38.451Z,100.00
2023-02-06T01:02:08.199Z,100.00
2023-02-06T01:04:38.011Z,100.00
2023-02-06T01:07:07.851Z,100.00
2023-02-06T01:09:40.465Z,100.00
2023-02-06T01:12:10.681Z,100.00
2023-02-06T01:14:40.495Z,100.00
2023-02-06T01:17:10.458Z,100.00
2023-02-06T01:19:41.221Z,100.00
2023-02-06T01:22:10.999Z,100.00
2023-02-06T01:24:43.370Z,100.00
2023-02-06T01:27:13.124Z,100.00
2023-02-06T01:29:43.371Z,100.00
2023-02-06T01:32:13.285Z,100.00
2023-02-06T01:34:43.105Z,100.00
2023-02-06T01:37:12.837Z,100.00
2023-02-06T01:39:45.400Z,100.00
2023-02-06T01:42:16.207Z,100.00
2023-02-06T01:44:45.976Z,100.00
2023-02-06T01:47:15.742Z,100.00
2023-02-06T01:49:48.580Z,100.00
2023-02-06T01:52:21.164Z,100.00
2023-02-06T01:54:59.828Z,100.00
2023-02-06T01:57:30.953Z,100.00
2023-02-06T02:00:04.173Z,100.00
2023-02-06T02:02:35.920Z,100.00
2023-02-06T02:05:06.986Z,100.00
2023-02-06T02:07:40.265Z,100.00
2023-02-06T02:10:12.887Z,100.00
2023-02-06T02:12:42.686Z,100.00
2023-02-06T02:15:12.859Z,100.00
2023-02-06T02:18:04.976Z,100.00
2023-02-06T02:21:11.055Z,100.00
2023-02-06T02:23:48.524Z,100.00
2023-02-06T02:26:50.391Z,100.00
2023-02-06T02:29:54.443Z,100.00
2023-02-06T02:32:50.814Z,100.00
2023-02-06T02:35:34.555Z,100.00
2023-02-06T02:38:13.585Z,100.00
2023-02-06T02:40:53.612Z,100.00
2023-02-06T02:43:31.578Z,100.00
2023-02-06T02:46:06.232Z,100.00
2023-02-06T02:48:40.588Z,100.00
2023-02-06T02:51:14.311Z,100.00
2023-02-06T02:53:44.062Z,100.00
2023-02-06T02:56:20.044Z,100.00
2023-02-06T02:58:56.188Z,100.00
2023-02-06T03:01:32.193Z,100.00
2023-02-06T03:04:13.741Z,100.00
2023-02-06T03:07:02.667Z,100.00
2023-02-06T03:09:46.018Z,100.00
2023-02-06T03:12:25.495Z,100.00
2023-02-06T03:15:03.265Z,100.00
2023-02-06T03:17:39.244Z,100.00
2023-02-06T03:20:13.346Z,100.00
2023-02-06T03:22:50.290Z,100.00
2023-02-06T03:25:28.055Z,100.00
2023-02-06T03:27:59.200Z,100.00
2023-02-06T03:30:31.310Z,100.00
2023-02-06T03:33:06.705Z,100.00
2023-02-06T03:35:40.161Z,100.00
2023-02-06T03:38:12.701Z,100.00
2023-02-06T03:40:44.106Z,100.00
2023-02-06T03:43:18.971Z,100.00
2023-02-06T03:45:51.942Z,100.00
2023-02-06T03:48:26.828Z,100.00
2023-02-06T03:50:58.622Z,100.00
2023-02-06T03:53:32.960Z,100.00
2023-02-06T03:56:10.850Z,100.00
2023-02-06T03:58:40.782Z,100.00
2023-02-06T04:01:11.272Z,100.00
2023-02-06T04:03:41.100Z,100.00
2023-02-06T04:06:11.394Z,100.00
2023-02-06T04:08:43.875Z,100.00
2023-02-06T04:11:13.681Z,100.00
2023-02-06T04:13:43.432Z,100.00
2023-02-06T04:16:13.265Z,100.00
2023-02-06T04:18:43.095Z,100.00
2023-02-06T04:21:12.847Z,100.00
2023-02-06T04:23:45.216Z,100.00
2023-02-06T04:26:15.032Z,100.00
2023-02-06T04:28:44.829Z,100.00
2023-02-06T04:31:14.729Z,100.00
2023-02-06T04:33:44.534Z,100.00
2023-02-06T04:36:14.403Z,100.00
2023-02-06T04:38:46.773Z,100.00
2023-02-06T04:41:16.672Z,100.00
2023-02-06T04:43:46.461Z,100.00
2023-02-06T04:46:16.353Z,100.00
2023-02-06T04:48:46.169Z,100.00
2023-02-06T04:51:15.974Z,100.00
2023-02-06T04:53:48.442Z,100.00
2023-02-06T04:56:18.204Z,100.00
2023-02-06T04:58:47.950Z,100.00
2023-02-06T05:01:18.169Z,100.00
2023-02-06T05:03:48.491Z,100.00
2023-02-06T05:06:18.698Z,100.00
2023-02-06T05:08:51.051Z,100.00
2023-02-06T05:11:20.848Z,100.00
2023-02-06T05:13:50.699Z,100.00
2023-02-06T05:16:21.113Z,100.00
2023-02-06T05:18:55.032Z,100.00
2023-02-06T05:21:25.538Z,100.00
2023-02-06T05:23:57.896Z,100.00
2023-02-06T05:26:27.678Z,100.00
2023-02-06T05:28:57.453Z,100.00
2023-02-06T05:31:27.370Z,100.00
2023-02-06T05:33:57.190Z,100.00
2023-02-06T05:36:27.206Z,100.00
2023-02-06T05:38:59.612Z,100.00
2023-02-06T05:41:29.405Z,100.00
2023-02-06T05:43:59.142Z,100.00
2023-02-06T05:46:29.052Z,100.00
2023-02-06T05:48:58.835Z,100.00
2023-02-06T05:51:28.610Z,100.00
2023-02-06T05:54:00.989Z,100.00
2023-02-06T05:56:30.774Z,100.00
2023-02-06T05:59:00.686Z,100.00
2023-02-06T06:01:30.489Z,100.00
2023-02-06T06:04:00.261Z,100.00
2023-02-06T06:06:30.085Z,100.00
2023-02-06T06:09:03.998Z,100.00
2023-02-06T06:11:34.277Z,100.00
2023-02-06T06:14:04.103Z,100.00
2023-02-06T06:16:33.918Z,100.00
2023-02-06T06:19:04.648Z,100.00
2023-02-06T06:21:34.403Z,100.00
2023-02-06T06:24:07.163Z,100.00
2023-02-06T06:26:37.074Z,100.00
2023-02-06T06:29:07.004Z,100.00
2023-02-06T06:31:36.812Z,100.00
2023-02-06T06:34:06.586Z,100.00
2023-02-06T06:36:36.756Z,100.00
2023-02-06T06:39:09.165Z,100.00
2023-02-06T06:41:38.914Z,100.00
2023-02-06T06:44:08.699Z,100.00
2023-02-06T06:46:38.445Z,100.00
2023-02-06T06:49:08.219Z,100.00
2023-02-06T06:51:38.063Z,100.00
2023-02-06T06:54:10.496Z,100.00
2023-02-06T06:56:40.289Z,100.00
2023-02-06T06:59:10.358Z,100.00
2023-02-06T07:01:40.159Z,100.00
2023-02-06T07:04:10.003Z,100.00
2023-02-06T07:06:39.809Z,100.00
2023-02-06T07:09:12.214Z,100.00
2023-02-06T07:11:42.976Z,100.00
2023-02-06T07:14:13.043Z,100.00
2023-02-06T07:16:42.866Z,100.00
2023-02-06T07:19:12.664Z,100.00
2023-02-06T07:21:42.425Z,100.00
2023-02-06T07:24:14.786Z,100.00
2023-02-06T07:26:44.870Z,100.00
2023-02-06T07:29:14.710Z,100.00
2023-02-06T07:31:44.545Z,100.00
2023-02-06T07:34:14.338Z,100.00
2023-02-06T07:36:44.127Z,100.00
2023-02-06T07:39:16.523Z,100.00
2023-02-06T07:41:46.662Z,100.00
2023-02-06T07:44:16.943Z,100.00
2023-02-06T07:46:47.855Z,100.00
2023-02-06T07:49:18.051Z,100.00
2023-02-06T07:51:49.069Z,100.00
2023-02-06T07:54:24.582Z,100.00
2023-02-06T07:56:54.571Z,100.00
2023-02-06T07:59:24.366Z,100.00
2023-02-06T08:01:54.154Z,100.00
2023-02-06T08:04:23.933Z,100.00
2023-02-06T08:06:53.760Z,100.00
2023-02-06T08:09:26.106Z,100.00
2023-02-06T08:11:55.882Z,100.00
2023-02-06T08:14:25.679Z,100.00
2023-02-06T08:16:55.673Z,100.00
2023-02-06T08:19:25.620Z,100.00
2023-02-06T08:21:55.674Z,100.00
2023-02-06T08:24:28.231Z,100.00
2023-02-06T08:26:58.048Z,100.00
2023-02-06T08:29:28.691Z,100.00
2023-02-06T08:31:58.480Z,100.00
2023-02-06T08:34:28.252Z,100.00
2023-02-06T08:36:58.042Z,100.00
2023-02-06T08:39:30.483Z,100.00
2023-02-06T08:42:00.337Z,100.00
2023-02-06T08:44:37.710Z,100.00
2023-02-06T08:47:10.428Z,100.00
2023-02-06T08:49:40.635Z,100.00
2023-02-06T08:52:10.441Z,100.00
2023-02-06T08:54:42.812Z,100.00
2023-02-06T08:57:13.016Z,100.00
2023-02-06T08:59:42.786Z,100.00
2023-02-06T09:02:14.046Z,100.00
2023-02-06T09:04:43.923Z,100.00
2023-02-06T09:07:16.284Z,100.00
2023-02-06T09:09:49.587Z,100.00
2023-02-06T09:12:19.391Z,100.00
2023-02-06T09:14:49.825Z,100.00
2023-02-06T09:17:20.273Z,100.00
2023-02-06T09:19:50.092Z,100.00
2023-02-06T09:22:19.874Z,100.00
2023-02-06T09:24:52.293Z,100.00
2023-02-06T09:27:22.548Z,100.00
2023-02-06T09:29:52.347Z,100.00
2023-02-06T09:32:22.115Z,100.00
2023-02-06T09:34:51.880Z,100.00
2023-02-06T09:37:21.879Z,100.00
2023-02-06T09:39:54.260Z,100.00
2023-02-06T09:42:31.452Z,100.00
2023-02-06T09:45:08.447Z,100.00
2023-02-06T09:47:47.063Z,100.00
2023-02-06T09:50:26.516Z,100.00
2023-02-06T09:53:10.476Z,100.00
2023-02-06T09:55:45.614Z,100.00
2023-02-06T09:58:25.259Z,100.00
2023-02-06T10:01:01.409Z,100.00
2023-02-06T10:03:54.773Z,100.00
2023-02-06T10:06:27.152Z,100.00
2023-02-06T10:09:03.253Z,100.00
2023-02-06T10:11:45.300Z,100.00
2023-02-06T10:14:22.486Z,100.00
2023-02-06T10:16:58.487Z,100.00
2023-02-06T10:19:43.938Z,100.00
2023-02-06T10:22:21.132Z,100.00
2023-02-06T10:25:16.289Z,100.00
2023-02-06T10:27:50.862Z,100.00
2023-02-06T10:30:23.224Z,100.00
2023-02-06T10:33:01.246Z,100.00
2023-02-06T10:35:39.743Z,100.00
2023-02-06T10:38:32.709Z,100.00
2023-02-06T10:41:07.456Z,100.00
2023-02-06T10:43:48.310Z,100.00
2023-02-06T10:46:38.382Z,100.00
2023-02-06T10:49:16.713Z,100.00
2023-02-06T10:51:49.234Z,100.00
2023-02-06T10:54:23.703Z,100.00
2023-02-06T10:56:56.892Z,100.00
2023-02-06T10:59:34.531Z,100.00
2023-02-06T11:02:21.225Z,100.00
2023-02-06T11:04:56.899Z,100.00
2023-02-06T11:07:31.140Z,100.00
2023-02-06T11:10:01.802Z,100.00
2023-02-06T11:12:37.068Z,100.00
2023-02-06T11:15:19.257Z,100.00
2023-02-06T11:17:49.217Z,100.00
2023-02-06T11:20:23.218Z,100.00
2023-02-06T11:22:53.900Z,100.00
2023-02-06T11:25:28.557Z,100.00
2023-02-06T11:27:59.211Z,100.00
2023-02-06T11:30:37.862Z,100.00
2023-02-06T11:33:11.103Z,100.00
2023-02-06T11:35:43.171Z,100.00
2023-02-06T11:38:21.764Z,100.00
2023-02-06T11:41:00.844Z,100.00
2023-02-06T11:43:34.478Z,100.00
2023-02-06T11:46:19.099Z,100.00
2023-02-06T11:48:50.753Z,100.00
2023-02-06T11:51:20.685Z,100.00
2023-02-06T11:54:01.505Z,100.00
2023-02-06T11:56:32.879Z,100.00
2023-02-06T11:59:09.714Z,100.00
2023-02-06T12:01:49.761Z,100.00
2023-02-06T12:04:25.191Z,100.00
2023-02-06T12:07:04.455Z,100.00
2023-02-06T12:09:34.301Z,100.00
2023-02-06T12:12:09.703Z,100.00
2023-02-06T12:14:43.069Z,100.00
2023-02-06T12:17:23.601Z,100.00
2023-02-06T12:20:01.604Z,100.00
2023-02-06T12:22:37.824Z,100.00
2023-02-06T12:25:08.679Z,100.00
2023-02-06T12:27:41.862Z,100.00
2023-02-06T12:30:32.698Z,100.00
2023-02-06T12:33:12.728Z,100.00
2023-02-06T12:35:46.729Z,100.00
2023-02-06T12:38:24.927Z,100.00
2023-02-06T12:41:08.973Z,100.00
2023-02-06T12:43:41.982Z,100.00
2023-02-06T12:46:18.518Z,100.00
2023-02-06T12:48:55.203Z,100.00
2023-02-06T12:51:31.399Z,100.00
2023-02-06T12:54:06.059Z,100.00
2023-02-06T12:56:40.095Z,100.00
2023-02-06T12:59:43.728Z,100.00
2023-02-06T13:02:31.742Z,100.00
2023-02-06T13:05:06.007Z,100.00
2023-02-06T13:07:49.305Z,100.00
2023-02-06T13:10:23.278Z,100.00
2023-02-06T13:12:57.507Z,100.00
2023-02-06T13:15:29.915Z,100.00
2023-02-06T13:18:00.211Z,100.00
2023-02-06T13:20:33.442Z,100.00
2023-02-06T13:23:25.362Z,100.00
2023-02-06T13:25:55.480Z,100.00
2023-02-06T13:28:44.071Z,100.00
2023-02-06T13:31:29.939Z,100.00
2023-02-06T13:34:03.767Z,100.00
2023-02-06T13:36:55.368Z,99.80
2023-02-06T13:39:34.778Z,99.57
2023-02-06T13:42:35.918Z,99.41
2023-02-06T13:45:09.078Z,99.23
2023-02-06T13:48:16.747Z,99.04
2023-02-06T13:51:05.203Z,98.71
2023-02-06T13:54:12.323Z,98.48
2023-02-06T13:56:52.343Z,98.35
2023-02-06T13:59:26.341Z,98.13
2023-02-06T14:01:57.154Z,98.02
2023-02-06T14:04:29.322Z,97.92
2023-02-06T14:07:29.062Z,97.77
2023-02-06T14:10:27.810Z,97.65
2023-02-06T14:13:09.176Z,97.58
2023-02-06T14:15:45.895Z,97.35
2023-02-06T14:18:31.426Z,97.28
2023-02-06T14:21:14.436Z,97.14
2023-02-06T14:24:06.830Z,97.09
2023-02-06T14:26:50.949Z,97.02
2023-02-06T14:29:31.474Z,96.99
2023-02-06T14:32:16.525Z,96.93
2023-02-06T14:35:03.246Z,96.81
2023-02-06T14:37:48.891Z,96.75
2023-02-06T14:40:24.073Z,96.75
2023-02-06T14:42:59.824Z,96.72
2023-02-06T14:45:40.825Z,96.62
2023-02-06T14:48:29.900Z,96.54
2023-02-06T14:51:01.145Z,96.41
2023-02-06T14:53:34.455Z,96.43
2023-02-06T14:56:21.488Z,96.45
2023-02-06T14:58:54.884Z,96.41
2023-02-06T15:01:27.269Z,96.41
2023-02-06T15:04:13.013Z,96.51
2023-02-06T15:06:45.170Z,96.51
2023-02-06T15:09:26.903Z,96.44
2023-02-06T15:12:00.565Z,96.46
2023-02-06T15:14:34.917Z,96.55
2023-02-06T15:17:04.885Z,96.50
2023-02-06T15:19:37.765Z,96.48
2023-02-06T15:22:13.064Z,96.56
2023-02-06T15:24:57.756Z,96.66
2023-02-06T15:27:32.158Z,96.69
2023-02-06T15:30:15.077Z,96.64
2023-02-06T15:32:44.892Z,96.75
2023-02-06T15:35:23.254Z,96.64
2023-02-06T15:37:53.905Z,96.73
2023-02-06T15:40:39.104Z,96.77
2023-02-06T15:43:09.176Z,96.77
2023-02-06T15:45:42.071Z,96.81
2023-02-06T15:48:16.262Z,96.86
2023-02-06T15:50:58.450Z,96.91
2023-02-06T15:53:38.698Z,96.89
2023-02-06T15:56:11.221Z,96.96
2023-02-06T15:58:41.006Z,96.96
2023-02-06T16:01:18.619Z,96.99
2023-02-06T16:03:53.356Z,97.00
2023-02-06T16:06:23.191Z,97.08
2023-02-06T16:08:57.591Z,97.03
2023-02-06T16:11:51.252Z,97.08
2023-02-06T16:14:29.153Z,97.11
2023-02-06T16:17:04.156Z,97.07
2023-02-06T16:19:43.962Z,97.11
2023-02-06T16:22:21.515Z,97.23
2023-02-06T16:24:51.628Z,97.18
2023-02-06T16:27:24.189Z,97.22
2023-02-06T16:29:56.741Z,97.30
2023-02-06T16:32:32.903Z,97.25
2023-02-06T16:35:03.522Z,97.32
2023-02-06T16:37:33.586Z,97.32
2023-02-06T16:40:04.543Z,97.18
2023-02-06T16:42:37.464Z,97.28
2023-02-06T16:45:11.720Z,97.20
2023-02-06T16:47:44.182Z,97.14
2023-02-06T16:50:14.518Z,97.15
2023-02-06T16:52:49.844Z,97.03
2023-02-06T16:55:23.279Z,97.05
2023-02-06T16:57:55.781Z,97.02
2023-02-06T17:00:29.500Z,96.96
2023-02-06T17:03:03.736Z,96.92
2023-02-06T17:05:36.260Z,96.90
2023-02-06T17:08:12.812Z,96.96
2023-02-06T17:10:42.780Z,96.88
2023-02-06T17:13:17.130Z,96.80
2023-02-06T17:15:48.341Z,96.80
2023-02-06T17:18:23.019Z,96.79
2023-02-06T17:20:56.381Z,96.77
2023-02-06T17:23:26.408Z,96.68
2023-02-06T17:25:56.217Z,96.62
2023-02-06T17:28:26.018Z,96.64
2023-02-06T17:30:55.835Z,96.58
2023-02-06T17:33:28.246Z,96.50
2023-02-06T17:35:58.228Z,96.54
2023-02-06T17:38:28.003Z,96.48
2023-02-06T17:40:57.811Z,96.50
2023-02-06T17:43:29.584Z,96.32
2023-02-06T17:45:59.485Z,96.35
2023-02-06T17:48:33.175Z,96.31
2023-02-06T17:51:03.747Z,96.31
2023-02-06T17:53:33.563Z,96.19
2023-02-06T17:56:07.810Z,96.23
2023-02-06T17:58:37.569Z,96.23
2023-02-06T18:01:07.516Z,96.08
2023-02-06T18:03:40.088Z,96.08
2023-02-06T18:06:10.909Z,96.01
2023-02-06T18:08:41.696Z,96.06
2023-02-06T18:11:12.997Z,96.02
2023-02-06T18:13:43.913Z,95.85
2023-02-06T18:16:16.988Z,95.77
2023-02-06T18:18:49.836Z,95.78
2023-02-06T18:21:20.929Z,95.77
2023-02-06T18:23:51.052Z,95.75
2023-02-06T18:26:21.940Z,95.77
2023-02-06T18:28:53.233Z,95.62
2023-02-06T18:31:26.257Z,95.56
2023-02-06T18:33:59.828Z,95.60
2023-02-06T18:36:30.001Z,95.52
2023-02-06T18:39:00.442Z,95.54
2023-02-06T18:41:42.669Z,95.36
2023-02-06T18:44:13.790Z,95.51
2023-02-06T18:46:43.767Z,95.35
2023-02-06T18:49:16.183Z,95.37
2023-02-06T18:51:46.199Z,95.31
2023-02-06T18:54:15.985Z,95.35
2023-02-06T18:56:45.793Z,95.19
2023-02-06T18:59:15.579Z,95.31
2023-02-06T19:01:45.630Z,95.17
2023-02-06T19:04:18.244Z,95.25
2023-02-06T19:06:49.599Z,95.25
2023-02-06T19:09:20.893Z,95.09
2023-02-06T19:11:51.491Z,95.10
2023-02-06T19:14:22.711Z,95.06
2023-02-06T19:16:58.337Z,95.24
2023-02-06T19:19:31.220Z,95.13
2023-02-06T19:22:02.263Z,94.95
2023-02-06T19:24:32.854Z,95.22
2023-02-06T19:27:02.713Z,95.17
2023-02-06T19:29:36.112Z,95.17
2023-02-06T19:32:09.477Z,95.35
2023-02-06T19:34:45.294Z,95.30
2023-02-06T19:37:16.810Z,95.34
2023-02-06T19:39:46.654Z,95.11
2023-02-06T19:42:18.987Z,95.21
2023-02-06T19:44:48.787Z,95.29
2023-02-06T19:47:21.667Z,95.33
2023-02-06T19:49:56.197Z,95.30
2023-02-06T19:52:29.193Z,95.40
2023-02-06T19:55:01.715Z,95.33
2023-02-06T19:57:31.653Z,95.40
2023-02-06T20:00:01.701Z,95.49
2023-02-06T20:02:31.575Z,95.42
2023-02-06T20:05:03.956Z,95.50
2023-02-06T20:07:33.733Z,95.45
2023-02-06T20:10:03.544Z,95.62
2023-02-06T20:12:33.421Z,95.56
2023-02-06T20:15:03.551Z,95.53
2023-02-06T20:17:33.466Z,95.54
2023-02-06T20:20:07.314Z,95.64
2023-02-06T20:22:37.290Z,95.60
2023-02-06T20:25:07.479Z,95.39
2023-02-06T20:27:38.462Z,95.38
2023-02-06T20:30:10.149Z,95.35
2023-02-06T20:32:40.025Z,95.56
2023-02-06T20:35:12.670Z,95.37
2023-02-06T20:37:42.674Z,95.31
2023-02-06T20:40:13.472Z,95.31
2023-02-06T20:42:44.615Z,95.19
2023-02-06T20:45:15.063Z,95.30
2023-02-06T20:47:46.483Z,95.24
2023-02-06T20:50:18.896Z,95.25
2023-02-06T20:52:49.770Z,95.15
2023-02-06T20:55:19.830Z,95.10
2023-02-06T20:57:49.842Z,95.10
2023-02-06T21:00:25.723Z,95.13
2023-02-06T21:02:56.072Z,95.17
2023-02-06T21:05:29.513Z,95.10
2023-02-06T21:08:00.035Z,95.11
2023-02-06T21:10:30.213Z,95.29
2023-02-06T21:13:00.175Z,95.15
2023-02-06T21:15:30.235Z,95.08
2023-02-06T21:18:00.108Z,95.19
2023-02-06T21:20:32.702Z,95.18
2023-02-06T21:23:03.045Z,95.32
2023-02-06T21:25:32.955Z,95.38
2023-02-06T21:28:02.869Z,95.36
2023-02-06T21:30:33.010Z,95.35
2023-02-06T21:33:05.774Z,95.47
2023-02-06T21:35:40.632Z,95.41
2023-02-06T21:38:11.592Z,95.55
2023-02-06T21:40:43.646Z,95.47
2023-02-06T21:43:15.226Z,95.49
2023-02-06T21:45:47.270Z,95.54
2023-02-06T21:48:17.377Z,95.55
2023-02-06T21:50:49.882Z,95.70
2023-02-06T21:53:19.648Z,95.64
2023-02-06T21:55:49.857Z,95.71
2023-02-06T21:58:19.664Z,95.69
2023-02-06T22:00:50.780Z,95.77
2023-02-06T22:03:22.957Z,95.88
2023-02-06T22:05:55.401Z,95.71
2023-02-06T22:08:25.214Z,95.67
2023-02-06T22:10:54.975Z,95.88
2023-02-06T22:13:24.738Z,95.81
2023-02-06T22:15:54.552Z,95.87
2023-02-06T22:18:24.326Z,95.72
2023-02-06T22:21:06.739Z,95.79
2023-02-06T22:23:36.983Z,95.78
2023-02-06T22:26:07.823Z,95.66
2023-02-06T22:28:37.772Z,95.76
2023-02-06T22:31:08.630Z,95.68
2023-02-06T22:33:38.813Z,95.65
2023-02-06T22:36:14.014Z,95.60
2023-02-06T22:38:44.997Z,95.62
2023-02-06T22:41:17.697Z,95.49
2023-02-06T22:43:48.840Z,95.61
2023-02-06T22:46:22.084Z,95.56
2023-02-06T22:48:52.183Z,95.47
2023-02-06T22:51:24.934Z,95.44
2023-02-06T22:53:56.973Z,95.26
2023-02-06T22:56:32.407Z,95.50
2023-02-06T22:59:04.317Z,95.41
2023-02-06T23:01:36.290Z,95.37
2023-02-06T23:04:07.935Z,95.46
2023-02-06T23:06:41.037Z,95.41
2023-02-06T23:09:12.595Z,95.36
2023-02-06T23:11:42.499Z,95.44
2023-02-06T23:14:14.724Z,95.44
2023-02-06T23:16:45.124Z,95.41
2023-02-06T23:19:16.333Z,95.35
2023-02-06T23:21:51.379Z,95.41
2023-02-06T23:24:21.476Z,95.48
2023-02-06T23:26:53.421Z,95.36
2023-02-06T23:29:24.747Z,95.44
2023-02-06T23:31:55.756Z,95.38
2023-02-06T23:34:26.032Z,95.46
2023-02-06T23:36:58.385Z,95.40
2023-02-06T23:39:28.135Z,95.41
2023-02-06T23:41:57.857Z,95.44
2023-02-06T23:44:27.601Z,95.38
2023-02-06T23:46:57.386Z,95.52
2023-02-06T23:49:27.142Z,95.38
2023-02-06T23:51:59.503Z,95.50
2023-02-06T23:54:29.259Z,95.37
2023-02-06T23:56:59.015Z,95.27
2023-02-06T23:59:28.805Z,95.33
